Time;durP1;ratioP1;P1;durP2;ratioP2;P2;SDS_P1;SDS_P2;PMS_P1;PMS_P2;Temp;Humidity;BMP_temperature;BMP_pressure;BME280_temperature;BME280_humidity;BME280_pressure;Samples;Min_cycle;Max_cycle;Signal;HPM_P1;HPM_P2
2022/08/13 00:01:21;;;;;;;4.63;2.38;;;;;;;24.94;35.59;101632.00;4962575;28;20038;-53
2022/08/13 00:03:47;;;;;;;8.07;2.42;;;;;;;24.90;35.49;101632.94;4960645;28;20451;-53
2022/08/13 00:06:14;;;;;;;9.55;2.28;;;;;;;24.83;35.42;101624.31;4959269;28;20122;-51
2022/08/13 00:08:40;;;;;;;6.32;2.35;;;;;;;24.84;35.66;101629.53;4960102;28;20023;-54
2022/08/13 00:11:07;;;;;;;3.20;2.20;;;;;;;24.83;35.53;101629.56;4962046;28;20030;-53
2022/08/13 00:13:33;;;;;;;4.40;2.20;;;;;;;24.74;35.75;101633.22;4960133;28;20050;-53
2022/08/13 00:16:00;;;;;;;4.53;2.40;;;;;;;24.77;36.27;101634.94;4961118;28;20080;-53
2022/08/13 00:18:27;;;;;;;5.80;2.40;;;;;;;24.70;36.57;101634.19;4960957;28;20602;-53
2022/08/13 00:20:55;;;;;;;3.42;2.15;;;;;;;24.69;36.24;101629.81;4961242;28;20066;-53
2022/08/13 00:23:23;;;;;;;6.53;2.65;;;;;;;24.68;35.90;101637.72;4960959;28;20681;-53
2022/08/13 00:25:56;;;;;;;5.82;2.13;;;;;;;24.70;35.37;101635.97;4960360;28;20530;-49
2022/08/13 00:28:25;;;;;;;10.13;2.53;;;;;;;24.61;36.46;101632.56;4960234;28;20042;-53
2022/08/13 00:30:52;;;;;;;5.55;2.17;;;;;;;24.58;36.46;101635.28;4960839;28;20037;-50
2022/08/13 00:33:21;;;;;;;8.13;2.80;;;;;;;24.60;36.83;101635.25;4961391;28;20088;-53
2022/08/13 00:35:49;;;;;;;8.85;2.55;;;;;;;24.57;36.61;101638.81;4959792;28;20474;-51
2022/08/13 00:38:20;;;;;;;7.38;2.28;;;;;;;24.54;36.05;101630.97;4963583;28;20430;-54
2022/08/13 00:40:50;;;;;;;4.32;2.45;;;;;;;24.47;36.20;101629.34;4960724;28;20064;-53
2022/08/13 00:43:15;;;;;;;6.82;2.60;;;;;;;24.44;36.78;101633.78;4961855;28;20041;-54
2022/08/13 00:45:41;;;;;;;6.97;2.55;;;;;;;24.35;36.82;101632.19;4960437;28;20030;-52
2022/08/13 00:50:53;;;;;;;5.93;2.50;;;;;;;24.40;36.76;101635.59;4956870;28;20449;-54
2022/08/13 00:53:20;;;;;;;11.07;2.63;;;;;;;24.25;37.09;101630.56;4967083;28;20569;-52
2022/08/13 00:55:49;;;;;;;4.18;2.45;;;;;;;24.32;36.86;101637.44;4960781;28;20058;-48
2022/08/13 00:58:19;;;;;;;7.93;2.80;;;;;;;24.27;37.15;101636.69;4962162;28;20045;-53
2022/08/13 01:00:56;;;;;;;9.70;2.80;;;;;;;24.32;36.69;101642.69;4959210;28;20050;-53
2022/08/13 01:03:22;;;;;;;8.73;2.75;;;;;;;24.21;37.24;101634.16;4961554;28;20039;-54
2022/08/13 01:05:49;;;;;;;7.68;3.33;;;;;;;24.16;37.05;101649.13;4959886;28;20035;-53
2022/08/13 01:08:16;;;;;;;6.00;3.00;;;;;;;24.18;36.73;101644.69;4959732;28;20141;-53
2022/08/13 01:10:44;;;;;;;7.15;2.90;;;;;;;24.14;37.40;101643.84;4959376;28;20445;-53
2022/08/13 01:13:13;;;;;;;6.72;3.13;;;;;;;24.12;37.50;101632.50;4959863;28;20034;-50
2022/08/13 01:15:39;;;;;;;;;;;;;;;24.40;36.51;101638.22;4959512;28;20043;-50
2022/08/13 01:18:07;;;;;;;8.07;3.03;;;;;;;24.08;37.53;101633.44;4961109;28;19914;-53
2022/08/13 01:20:40;;;;;;;9.25;3.00;;;;;;;24.05;37.88;101634.38;4960177;28;20125;-51
2022/08/13 01:23:07;;;;;;;7.75;2.83;;;;;;;24.00;37.86;101630.94;4958034;28;20039;-53
2022/08/13 01:25:32;;;;;;;5.55;3.00;;;;;;;23.96;37.91;101634.50;4959785;28;20039;-53
2022/08/13 01:27:59;;;;;;;5.20;2.85;;;;;;;23.91;38.03;101633.72;4965937;28;20061;-51
2022/08/13 01:30:24;;;;;;;7.95;3.10;;;;;;;23.88;37.56;101640.78;4959516;28;20035;-51
2022/08/13 01:32:50;;;;;;;6.63;2.95;;;;;;;23.85;37.82;101638.22;4961171;28;20104;-50
2022/08/13 01:35:19;;;;;;;4.63;2.90;;;;;;;23.81;38.41;101642.63;4958091;28;20100;-47
2022/08/13 01:37:51;;;;;;;6.80;2.85;;;;;;;23.81;38.42;101645.25;4958965;28;20039;-53
2022/08/13 01:40:17;;;;;;;9.35;2.90;;;;;;;23.73;38.16;101647.13;4968100;28;20066;-52
2022/08/13 01:42:45;;;;;;;5.28;2.70;;;;;;;23.72;38.43;101646.25;4960786;28;20031;-54
2022/08/13 01:45:13;;;;;;;10.35;3.15;;;;;;;23.68;38.29;101644.56;4960612;28;20030;-53
2022/08/13 01:50:30;;;;;;;5.53;3.00;;;;;;;23.67;38.13;101642.81;4960028;28;20340;-53
2022/08/13 01:53:01;;;;;;;7.32;3.30;;;;;;;23.65;39.00;101633.22;4957912;28;20091;-52
2022/08/13 01:55:39;;;;;;;4.97;3.25;;;;;;;23.68;38.17;101639.31;4959177;28;20391;-54
2022/08/13 01:58:19;;;;;;;7.85;3.03;;;;;;;23.68;38.32;101630.56;4960014;28;20027;-52
2022/08/13 02:00:47;;;;;;;6.20;3.10;;;;;;;23.64;38.46;101634.09;4959134;28;20034;-48
2022/08/13 02:03:16;;;;;;;6.00;2.90;;;;;;;23.54;38.99;101625.47;4959211;28;20038;-49
2022/08/13 02:05:42;;;;;;;7.72;3.33;;;;;;;23.52;38.10;101633.34;4961621;28;20073;-53
2022/08/13 02:08:14;;;;;;;5.60;3.10;;;;;;;23.53;38.45;101636.84;4960010;28;20035;-49
2022/08/13 02:10:42;;;;;;;7.50;3.10;;;;;;;23.45;39.49;101631.69;4960497;28;20092;-52
2022/08/13 02:13:14;;;;;;;7.25;3.03;;;;;;;23.43;39.11;101635.25;4957884;28;20055;-52
2022/08/13 02:15:40;;;;;;;8.88;3.45;;;;;;;23.36;39.94;101634.47;4960086;28;20070;-53
2022/08/13 02:18:07;;;;;;;8.27;3.10;;;;;;;23.36;39.49;101623.97;4960953;28;20053;-53
2022/08/13 02:20:34;;;;;;;5.32;2.85;;;;;;;23.32;39.69;101630.13;4962680;28;20092;-53
2022/08/13 02:23:02;;;;;;;6.97;2.92;;;;;;;23.26;39.97;101623.19;4959047;28;20046;-51
2022/08/13 02:25:28;;;;;;;4.72;2.80;;;;;;;23.29;39.52;101627.53;4960434;28;20513;-51
2022/08/13 02:27:55;;;;;;;7.10;3.08;;;;;;;23.18;40.06;101638.19;4960894;28;20134;-53
2022/08/13 02:30:22;;;;;;;6.10;3.13;;;;;;;23.17;39.14;101632.91;4958151;28;20888;-52
2022/08/13 02:32:49;;;;;;;7.10;3.13;;;;;;;23.14;39.54;101631.22;4970017;28;20236;-51
2022/08/13 02:35:18;;;;;;;9.40;3.70;;;;;;;23.07;39.61;101632.19;4958003;28;20548;-53
2022/08/13 02:37:44;;;;;;;5.50;3.10;;;;;;;23.08;40.21;101631.28;4959437;28;20030;-54
2022/08/13 02:42:59;;;;;;;5.65;2.70;;;;;;;22.98;40.03;101627.88;4958910;28;20053;-54
2022/08/13 02:45:26;;;;;;;6.00;2.80;;;;;;;22.88;40.91;101638.50;4960145;28;20082;-54
2022/08/13 02:47:53;;;;;;;5.85;2.90;;;;;;;22.93;40.38;101636.69;4962679;28;20034;-51
2022/08/13 02:50:20;;;;;;;5.03;2.50;;;;;;;22.89;40.00;101629.75;4960483;28;20031;-53
2022/08/13 02:52:53;;;;;;;6.53;3.10;;;;;;;22.83;40.64;101627.16;4959930;28;20141;-51
2022/08/13 02:55:20;;;;;;;8.10;2.80;;;;;;;22.83;40.57;101638.53;4956981;28;20089;-52
2022/08/13 02:57:47;;;;;;;6.15;2.80;;;;;;;22.78;40.71;101631.59;4959455;28;20043;-53
2022/08/13 03:00:14;;;;;;;6.75;3.00;;;;;;;22.80;40.44;101635.91;4959002;28;20548;-48
2022/08/13 03:02:44;;;;;;;6.45;2.70;;;;;;;22.74;40.48;101633.34;4957528;28;20034;-51
2022/08/13 03:05:13;;;;;;;3.45;2.83;;;;;;;22.72;40.92;101628.13;4959467;28;20034;-53
2022/08/13 03:07:41;;;;;;;6.63;3.20;;;;;;;22.71;40.51;101636.88;4959954;28;20126;-47
2022/08/13 03:10:11;;;;;;;5.55;2.83;;;;;;;22.70;41.27;101631.66;4955387;28;20039;-52
2022/08/13 03:12:39;;;;;;;7.72;3.00;;;;;;;22.70;41.06;101635.16;4960420;28;20037;-52
2022/08/13 03:15:08;;;;;;;6.05;2.85;;;;;;;22.66;40.57;101630.81;4959329;28;20485;-52
2022/08/13 03:17:33;;;;;;;5.85;2.70;;;;;;;22.63;40.55;101637.84;4957207;28;20038;-52
2022/08/13 03:19:58;;;;;;;5.40;2.88;;;;;;;22.61;41.33;101637.00;4957795;28;20667;-50
2022/08/13 03:22:24;;;;;;;8.30;2.88;;;;;;;22.59;41.47;101633.53;4961472;28;20422;-54
2022/08/13 03:24:49;;;;;;;7.60;3.25;;;;;;;22.58;41.27;101639.66;4968417;28;20057;-50
2022/08/13 03:27:14;;;;;;;8.00;2.88;;;;;;;22.56;40.61;101636.16;4961022;28;20050;-49
2022/08/13 03:29:40;;;;;;;6.10;2.90;;;;;;;22.55;41.42;101639.66;4962932;28;20031;-50
2022/08/13 03:32:05;;;;;;;6.85;2.97;;;;;;;22.47;41.39;101637.13;4959531;28;20035;-53
2022/08/13 03:34:31;;;;;;;7.63;2.63;;;;;;;22.41;41.97;101638.03;4962452;28;20471;-53
2022/08/13 03:36:56;;;;;;;9.55;3.10;;;;;;;22.42;41.53;101637.16;4961683;28;20494;-48
2022/08/13 03:39:22;;;;;;;9.35;3.08;;;;;;;22.39;41.96;101634.56;4960898;28;20104;-48
2022/08/13 03:41:47;;;;;;;5.78;2.92;;;;;;;22.38;42.17;101631.94;4961711;28;20030;-50
2022/08/13 03:44:12;;;;;;;6.63;2.95;;;;;;;22.31;41.70;101639.00;4967628;28;20144;-53
2022/08/13 03:46:38;;;;;;;7.28;3.17;;;;;;;22.30;42.08;101628.53;4963347;28;20056;-53
2022/08/13 03:49:04;;;;;;;7.45;2.88;;;;;;;22.27;42.47;101633.81;4958827;28;20057;-53
2022/08/13 03:51:29;;;;;;;5.53;2.70;;;;;;;22.16;42.92;101633.88;4961683;28;20040;-49
2022/08/13 03:53:55;;;;;;;8.13;3.13;;;;;;;22.06;42.67;101634.78;4962719;28;20494;-50
2022/08/13 03:56:23;;;;;;;6.03;2.63;;;;;;;22.07;42.72;101633.91;4962451;28;20046;-53
2022/08/13 03:58:49;;;;;;;8.20;2.78;;;;;;;22.06;42.85;101629.56;4960766;28;20023;-54
2022/08/13 04:01:17;;;;;;;5.35;2.40;;;;;;;21.99;43.04;101633.97;4962150;28;21962;-50
2022/08/13 04:03:43;;;;;;;4.63;2.60;;;;;;;22.03;42.49;101632.22;4962282;28;20938;-52
2022/08/13 04:06:16;;;;;;;5.43;2.30;;;;;;;21.93;43.09;101634.88;4961401;28;20034;-53
2022/08/13 04:08:43;;;;;;;7.93;2.40;;;;;;;21.93;43.41;101627.03;4962655;28;20463;-53
2022/08/13 04:11:14;;;;;;;9.40;2.60;;;;;;;21.88;43.49;101625.31;4960028;28;20134;-53
2022/08/13 04:13:41;;;;;;;7.10;2.97;;;;;;;21.89;43.51;101627.91;4961073;28;20110;-53
2022/08/13 04:16:20;;;;;;;7.07;2.72;;;;;;;21.89;43.54;101633.16;4962062;28;20080;-53
2022/08/13 04:18:46;;;;;;;6.88;3.00;;;;;;;21.82;43.32;101628.84;4961609;28;20037;-53
2022/08/13 04:21:15;;;;;;;5.22;3.08;;;;;;;21.78;42.99;101629.75;4959783;28;20042;-51
2022/08/13 04:23:41;;;;;;;4.75;2.60;;;;;;;21.73;43.78;101628.91;4960282;28;20433;-53
2022/08/13 04:26:08;;;;;;;6.35;2.90;;;;;;;21.73;43.24;101634.16;4959717;28;20042;-53
2022/08/13 04:28:34;;;;;;;6.38;2.90;;;;;;;21.69;43.68;101630.66;4961268;28;20050;-51
2022/08/13 04:31:00;;;;;;;5.10;2.97;;;;;;;21.67;43.27;101639.41;4961992;28;20073;-53
2022/08/13 04:33:27;;;;;;;6.35;2.78;;;;;;;21.68;43.39;101639.41;4960894;28;20046;-53
2022/08/13 04:35:53;;;;;;;5.30;3.35;;;;;;;21.67;43.35;101639.41;4959094;28;20079;-54
2022/08/13 04:38:18;;;;;;;6.43;2.92;;;;;;;21.68;43.63;101633.28;4962727;28;20041;-52
2022/08/13 04:40:45;;;;;;;7.90;2.92;;;;;;;21.69;43.62;101640.25;4965734;28;20041;-53
2022/08/13 04:43:12;;;;;;;6.47;3.00;;;;;;;21.64;44.23;101637.66;4960714;28;21086;-53
2022/08/13 04:45:38;;;;;;;8.93;3.22;;;;;;;21.61;43.98;101642.94;4960832;28;20038;-53
2022/08/13 04:48:09;;;;;;;7.75;3.20;;;;;;;21.56;44.30;101644.69;4960851;28;20035;-54
2022/08/13 04:50:36;;;;;;;9.10;3.33;;;;;;;21.60;44.65;101640.31;4961496;28;20034;-53
2022/08/13 04:53:04;;;;;;;5.82;3.38;;;;;;;21.57;44.05;101641.19;4954662;28;20068;-52
2022/08/13 04:55:30;;;;;;;7.50;3.55;;;;;;;21.55;44.26;101642.09;4962373;28;20113;-52
2022/08/13 04:57:55;;;;;;;6.57;2.95;;;;;;;21.58;44.17;101644.69;4964492;28;20035;-53
2022/08/13 05:00:24;;;;;;;6.85;2.95;;;;;;;21.56;44.31;101644.69;4958975;28;20089;-53
2022/08/13 05:02:52;;;;;;;6.85;2.95;;;;;;;21.55;44.42;101645.56;4958767;28;20126;-48
2022/08/13 05:05:21;;;;;;;9.20;3.30;;;;;;;21.56;44.55;101641.22;4961409;28;20027;-51
2022/08/13 05:07:50;;;;;;;;;;;;;;;21.80;43.60;101648.94;4961207;28;20377;-53
2022/08/13 05:10:15;;;;;;;4.38;2.78;;;;;;;21.58;44.39;101655.16;4961942;28;19922;-53
2022/08/13 05:12:41;;;;;;;6.70;3.17;;;;;;;21.59;43.88;101655.13;4959874;28;20505;-49
2022/08/13 05:15:07;;;;;;;7.28;3.42;;;;;;;21.63;44.65;101650.75;4960143;28;20104;-53
2022/08/13 05:17:32;;;;;;;6.80;3.13;;;;;;;21.59;43.88;101646.41;4961319;28;20564;-52
2022/08/13 05:19:59;;;;;;;9.68;3.10;;;;;;;21.59;43.95;101652.50;4959916;28;20126;-52
2022/08/13 05:22:26;;;;;;;9.52;3.33;;;;;;;21.62;44.77;101655.13;4959929;28;20414;-49
2022/08/13 05:24:52;;;;;;;6.07;3.15;;;;;;;21.63;44.94;101654.25;4959706;28;20038;-50
2022/08/13 05:27:18;;;;;;;6.90;3.20;;;;;;;21.65;44.58;101654.22;4960202;28;20555;-51
2022/08/13 05:29:44;;;;;;;7.35;3.00;;;;;;;21.62;45.70;101657.75;4958076;28;20039;-47
2022/08/13 05:32:10;;;;;;;7.32;3.50;;;;;;;21.64;44.84;101661.22;4962168;28;20053;-49
2022/08/13 05:34:37;;;;;;;6.63;3.15;;;;;;;21.68;44.54;101654.22;4960879;28;20111;-53
2022/08/13 05:37:06;;;;;;;7.25;3.10;;;;;;;21.69;45.69;101662.06;4959978;28;20038;-50
2022/08/13 05:39:31;;;;;;;5.68;3.33;;;;;;;21.66;44.95;101656.88;4960992;28;20054;-50
2022/08/13 05:41:57;;;;;;;7.65;3.15;;;;;;;21.65;45.19;101654.22;4962240;28;20130;-50
2022/08/13 05:44:23;;;;;;;8.90;3.30;;;;;;;21.71;44.47;101653.34;4960551;28;20061;-52
2022/08/13 05:46:49;;;;;;;8.30;3.30;;;;;;;21.71;44.85;101650.72;4959942;28;20034;-49
2022/08/13 05:49:15;;;;;;;4.20;3.00;;;;;;;21.69;45.04;101651.59;4961422;28;20041;-51
2022/08/13 05:51:43;;;;;;;6.43;3.65;;;;;;;21.73;45.14;101647.22;4960549;28;20045;-52
2022/08/13 05:54:10;;;;;;;9.45;3.63;;;;;;;21.75;44.97;101652.44;4960187;28;20543;-52
2022/08/13 05:56:37;;;;;;;8.10;3.45;;;;;;;21.80;44.05;101656.78;4962004;28;20746;-54
2022/08/13 05:59:06;;;;;;;11.27;3.33;;;;;;;21.81;44.48;101655.91;4958295;28;20045;-50
2022/08/13 06:04:19;;;;;;;7.82;3.30;;;;;;;21.97;44.17;101647.97;4958636;28;20185;-53
2022/08/13 06:06:46;;;;;;;8.52;3.20;;;;;;;22.00;44.01;101650.53;4959035;28;20046;-53
2022/08/13 06:09:12;;;;;;;6.13;3.10;;;;;;;22.02;44.38;101643.53;4958207;28;20023;-53
2022/08/13 06:11:40;;;;;;;6.20;3.25;;;;;;;22.09;43.63;101651.41;4957241;28;20536;-53
2022/08/13 06:14:06;;;;;;;8.00;3.40;;;;;;;22.20;43.98;101651.28;4960823;28;20470;-54
2022/08/13 06:16:33;;;;;;;8.90;3.25;;;;;;;22.32;43.10;101642.47;4961461;28;20046;-54
2022/08/13 06:19:00;;;;;;;7.63;3.22;;;;;;;22.40;43.49;101651.16;4959650;28;20493;-52
2022/08/13 06:21:26;;;;;;;8.82;3.35;;;;;;;22.46;43.03;101649.34;4959184;28;20041;-53
2022/08/13 06:23:54;;;;;;;6.22;3.05;;;;;;;22.56;42.88;101647.50;4960788;28;20027;-53
2022/08/13 06:26:22;;;;;;;9.40;3.40;;;;;;;22.65;42.10;101651.81;4957722;28;20403;-53
2022/08/13 06:28:50;;;;;;;5.85;3.08;;;;;;;22.70;42.32;101656.13;4958240;28;20065;-52
2022/08/13 06:31:20;;;;;;;;;;;;;;;22.87;41.87;101647.25;4961171;28;20551;-53
2022/08/13 06:33:46;;;;;;;10.93;3.50;;;;;;;22.86;42.32;101651.59;4958230;28;20443;-53
2022/08/13 06:36:15;;;;;;;7.88;3.50;;;;;;;22.93;42.02;101658.56;4956732;28;20092;-54
2022/08/13 06:38:43;;;;;;;5.20;3.60;;;;;;;22.95;42.06;101653.28;4969774;28;20066;-52
2022/08/13 06:41:11;;;;;;;6.13;3.65;;;;;;;23.04;42.02;101654.94;4961209;28;20110;-52
2022/08/13 06:43:41;;;;;;;8.85;3.60;;;;;;;23.11;41.22;101657.47;4958584;28;20457;-53
2022/08/13 06:46:12;;;;;;;13.07;3.90;;;;;;;23.18;41.31;101658.28;4959516;28;20441;-53
2022/08/13 06:48:39;;;;;;;21.20;5.25;;;;;;;23.30;40.52;101658.16;4964021;28;20038;-54
2022/08/13 06:51:07;;;;;;;22.77;4.45;;;;;;;23.34;40.69;101665.06;4955778;28;20030;-50
2022/08/13 06:53:35;;;;;;;14.10;3.85;;;;;;;23.38;40.80;101663.28;4962969;28;20033;-53
2022/08/13 06:56:03;;;;;;;17.85;4.40;;;;;;;23.49;40.55;101654.41;4963438;28;20037;-49
2022/08/13 06:58:30;;;;;;;33.20;6.18;;;;;;;23.55;40.46;101656.09;4967033;28;20035;-54
2022/08/13 07:00:56;;;;;;;33.17;7.35;;;;;;;23.59;40.46;101649.00;4960312;28;20058;-53
2022/08/13 07:03:27;;;;;;;14.90;3.90;;;;;;;23.72;40.40;101659.38;4973280;28;20039;-54
2022/08/13 07:05:56;;;;;;;11.52;4.20;;;;;;;23.75;40.33;101658.47;4960680;28;20487;-56
2022/08/13 07:08:24;;;;;;;51.28;8.32;;;;;;;23.84;40.94;101666.19;4963246;28;20035;-56
2022/08/13 07:11:21;;;;;;;17.73;4.18;;;;;;;23.93;40.47;101662.59;4959510;28;20479;-55
2022/08/13 07:13:40;;;;;;;9.75;3.35;;;;;;;24.05;40.71;101672.91;4962559;28;20035;-55
2022/08/13 07:16:10;;;;;;;15.45;3.78;;;;;;;24.12;40.10;101671.06;4963777;28;20054;-54
2022/08/13 07:18:37;;;;;;;15.07;3.55;;;;;;;24.21;39.94;101670.94;4962247;28;20030;-55
2022/08/13 07:21:07;;;;;;;21.42;4.57;;;;;;;24.26;39.31;101672.56;4961830;28;20050;-53
2022/08/13 07:23:33;;;;;;;21.95;5.25;;;;;;;24.39;40.05;101667.16;4962527;28;20034;-49
2022/08/13 07:25:59;;;;;;;11.00;3.45;;;;;;;24.47;39.58;101667.91;4964470;28;20372;-55
2022/08/13 07:28:29;;;;;;;8.25;3.13;;;;;;;24.56;39.14;101675.63;4962222;28;20478;-56
2022/08/13 07:30:56;;;;;;;18.13;3.90;;;;;;;24.60;38.97;101672.91;4963378;28;20037;-54
2022/08/13 07:33:22;;;;;;;53.78;6.57;;;;;;;24.70;39.67;101664.88;4972859;28;20039;-55
2022/08/13 07:35:47;;;;;;;9.88;2.70;;;;;;;24.79;39.98;101668.19;4968638;28;20518;-56
2022/08/13 07:38:13;;;;;;;8.60;2.95;;;;;;;24.91;39.08;101660.97;4961995;28;20088;-56
2022/08/13 07:40:40;;;;;;;7.32;2.58;;;;;;;24.94;39.26;101666.22;4961376;28;20757;-55
2022/08/13 07:43:07;;;;;;;25.42;4.10;;;;;;;25.03;39.13;101673.91;4963203;28;20080;-55
2022/08/13 07:45:33;;;;;;;19.30;3.92;;;;;;;25.16;38.48;101678.06;4963107;28;20023;-51
2022/08/13 07:47:58;;;;;;;16.35;4.18;;;;;;;25.19;38.59;101674.53;4966836;28;20038;-58
2022/08/13 07:50:24;;;;;;;10.73;3.10;;;;;;;25.18;39.18;101672.75;4966096;28;20050;-55
2022/08/13 07:52:58;;;;;;;10.82;2.78;;;;;;;25.32;39.95;101679.50;4965231;28;20118;-55
2022/08/13 07:55:27;;;;;;;5.50;2.53;;;;;;;25.40;39.61;101674.94;4966599;28;20029;-56
2022/08/13 07:57:54;;;;;;;10.13;2.58;;;;;;;25.47;39.43;101672.19;4966257;28;20058;-56
2022/08/13 08:00:25;;;;;;;8.80;2.60;;;;;;;25.56;38.62;101675.50;4965077;28;20076;-52
2022/08/13 08:03:03;;;;;;;5.43;3.13;;;;;;;25.68;38.57;101669.09;4967453;28;20113;-59
2022/08/13 08:05:35;;;;;;;6.15;2.45;;;;;;;25.66;39.84;101666.50;4961819;28;20035;-55
2022/08/13 08:08:00;;;;;;;9.02;2.65;;;;;;;25.74;39.17;101670.75;4965348;28;20019;-55
2022/08/13 08:10:27;;;;;;;7.18;2.45;;;;;;;25.83;39.03;101668.78;4971506;28;20047;-55
2022/08/13 08:13:00;;;;;;;9.75;2.95;;;;;;;25.88;37.93;101671.31;4975702;28;20117;-55
2022/08/13 08:15:27;;;;;;;6.72;2.70;;;;;;;26.01;38.68;101675.41;4965946;28;20175;-55
2022/08/13 08:17:57;;;;;;;8.57;3.10;;;;;;;26.02;38.44;101671.84;4967480;28;20039;-57
2022/08/13 08:20:23;;;;;;;10.70;2.67;;;;;;;26.12;38.92;101668.09;4970648;28;20050;-56
2022/08/13 08:22:50;;;;;;;7.38;2.72;;;;;;;26.17;38.82;101674.13;4966183;28;20030;-49
2022/08/13 08:25:21;;;;;;;6.50;2.55;;;;;;;26.26;38.69;101673.03;4964263;28;20537;-55
2022/08/13 08:27:47;;;;;;;8.18;2.88;;;;;;;26.37;39.02;101680.69;4967093;28;20723;-56
2022/08/13 08:30:18;;;;;;;7.55;2.65;;;;;;;26.34;40.35;101676.38;4962108;28;20035;-51
2022/08/13 08:32:53;;;;;;;9.27;2.60;;;;;;;26.39;40.19;101671.84;4977174;28;20039;-55
2022/08/13 08:35:20;;;;;;;8.90;2.80;;;;;;;26.45;37.71;101669.09;4963950;28;20027;-49
2022/08/13 08:43:27;;;;;;;4.43;2.35;;;;;;;26.62;37.68;101670.41;4962414;28;20468;-56
2022/08/13 08:45:53;;;;;;;9.20;2.60;;;;;;;26.67;38.07;101674.66;4965443;28;20042;-56
2022/08/13 08:48:19;;;;;;;5.40;2.20;;;;;;;26.72;39.34;101678.06;4957891;28;20035;-53
2022/08/13 08:50:44;;;;;;;4.53;2.10;;;;;;;26.82;37.94;101672.56;4958381;28;20088;-53
2022/08/13 08:53:20;;;;;;;10.55;2.70;;;;;;;26.84;38.32;101663.69;4962159;28;20042;-56
2022/08/13 08:55:47;;;;;;;5.85;2.67;;;;;;;26.80;37.20;101669.94;4960231;28;20441;-55
2022/08/13 08:58:12;;;;;;;7.00;2.47;;;;;;;26.95;36.70;101663.41;4968215;28;20137;-55
2022/08/13 09:00:39;;;;;;;4.07;1.50;;;;;;;27.00;34.48;101667.66;4955062;28;20043;-52
2022/08/13 09:03:07;;;;;;;4.57;1.70;;;;;;;26.99;36.60;101670.31;4958622;28;20120;-53
2022/08/13 09:05:34;;;;;;;7.33;1.80;;;;;;;26.98;35.84;101661.50;4957540;28;20047;-53
2022/08/13 09:08:01;;;;;;;4.68;1.83;;;;;;;27.12;37.29;101663.84;4964243;28;20034;-56
2022/08/13 09:10:27;;;;;;;3.47;1.75;;;;;;;27.25;35.34;101664.34;4962414;28;20072;-54
2022/08/13 09:12:52;;;;;;;2.78;2.03;;;;;;;27.32;34.32;101665.03;4962217;28;20043;-55
2022/08/13 09:15:21;;;;;;;5.60;1.50;;;;;;;27.34;35.18;101653.50;4960544;28;20030;-54
2022/08/13 09:17:49;;;;;;;3.05;1.55;;;;;;;27.44;34.61;101665.53;4966257;28;20114;-54
2022/08/13 09:20:17;;;;;;;5.45;1.55;;;;;;;27.47;34.84;101661.91;4960419;28;20407;-55
2022/08/13 09:22:47;;;;;;;7.65;1.50;;;;;;;27.48;35.20;101653.09;4954347;28;20049;-55
2022/08/13 09:25:15;;;;;;;6.00;1.75;;;;;;;27.58;36.23;101649.25;4962893;28;20495;-55
2022/08/13 09:27:43;;;;;;;3.75;1.63;;;;;;;27.65;35.38;101661.38;4956350;28;20031;-50
2022/08/13 09:30:10;;;;;;;6.55;1.77;;;;;;;27.67;34.54;101667.50;4960598;28;20042;-55
2022/08/13 09:32:36;;;;;;;3.95;1.80;;;;;;;27.62;33.70;101663.25;4959483;28;20144;-50
2022/08/13 09:35:04;;;;;;;2.78;1.48;;;;;;;27.77;34.67;101661.03;4959750;28;20042;-55
2022/08/13 09:37:31;;;;;;;5.13;1.85;;;;;;;27.83;34.98;101659.09;4960482;28;20471;-52
2022/08/13 09:40:06;;;;;;;2.65;1.40;;;;;;;27.89;34.90;101659.78;4961936;28;20023;-55
2022/08/13 09:42:44;;;;;;;4.57;1.50;;;;;;;28.03;34.30;101662.88;4971092;28;20030;-56
2022/08/13 09:45:10;;;;;;;3.22;1.35;;;;;;;27.93;35.03;101661.44;4959254;28;20404;-56
2022/08/13 09:47:35;;;;;;;7.72;1.70;;;;;;;27.91;32.72;101657.09;4957818;28;20030;-51
2022/08/13 09:50:01;;;;;;;4.53;1.38;;;;;;;28.00;33.43;101652.38;4961021;28;20038;-54
2022/08/13 09:52:26;;;;;;;6.28;1.60;;;;;;;28.13;33.79;101652.84;4964057;28;20499;-56
2022/08/13 09:54:52;;;;;;;4.47;1.60;;;;;;;28.13;33.67;101652.84;4964673;28;20125;-56
2022/08/13 09:57:20;;;;;;;6.95;1.60;;;;;;;28.23;33.67;101650.78;4966280;28;20041;-55
2022/08/13 09:59:47;;;;;;;6.63;1.55;;;;;;;28.18;34.12;101650.91;4965424;28;20023;-55
2022/08/13 10:02:13;;;;;;;3.92;1.92;;;;;;;28.29;35.37;101640.84;4961741;28;20105;-55
2022/08/13 10:04:39;;;;;;;8.65;2.05;;;;;;;28.30;34.95;101642.59;4967071;28;20106;-55
2022/08/13 10:07:07;;;;;;;7.43;2.17;;;;;;;28.41;34.02;101646.69;4968839;28;20042;-55
2022/08/13 10:09:34;;;;;;;13.68;2.30;;;;;;;28.48;34.19;101632.31;4968995;28;20054;-54
2022/08/13 10:12:01;;;;;;;8.07;1.88;;;;;;;28.53;33.69;101630.41;4964791;28;20455;-55
2022/08/13 10:14:26;;;;;;;4.38;1.48;;;;;;;28.63;32.48;101636.22;4966145;28;20364;-55
2022/08/13 10:16:53;;;;;;;4.25;1.33;;;;;;;28.70;32.87;101627.16;4963451;28;20035;-56
2022/08/13 10:19:18;;;;;;;5.70;1.85;;;;;;;28.71;32.80;101621.81;4968996;28;20786;-56
2022/08/13 10:21:44;;;;;;;3.88;1.65;;;;;;;28.58;31.74;101617.88;4965837;28;20067;-54
2022/08/13 10:24:10;;;;;;;3.00;1.40;;;;;;;28.64;31.17;101622.94;4967775;28;20035;-54
2022/08/13 10:26:40;;;;;;;2.75;1.27;;;;;;;28.73;31.21;101617.31;4964351;28;20080;-55
2022/08/13 10:29:08;;;;;;;4.72;1.33;;;;;;;28.76;32.07;101622.50;4965152;28;20075;-55
2022/08/13 10:31:38;;;;;;;4.85;1.60;;;;;;;28.86;31.51;101618.59;4965923;28;20031;-54
2022/08/13 10:34:05;;;;;;;1.85;1.30;;;;;;;28.85;30.57;101616.88;4965273;28;20023;-55
2022/08/13 10:36:32;;;;;;;3.17;1.10;;;;;;;28.97;31.13;101617.38;4966438;28;20023;-55
2022/08/13 10:38:57;;;;;;;5.80;1.17;;;;;;;28.96;32.05;101613.00;4966507;28;20051;-54
2022/08/13 10:41:24;;;;;;;6.18;1.80;;;;;;;28.92;30.00;101614.00;4988689;28;20045;-53
2022/08/13 10:43:49;;;;;;;2.92;1.23;;;;;;;28.89;32.25;101607.03;4969176;28;20108;-49
2022/08/13 10:46:20;;;;;;;3.50;1.65;;;;;;;29.00;31.52;101606.66;4970261;28;20035;-55
2022/08/13 10:48:55;;;;;;;2.33;1.20;;;;;;;29.04;31.81;101605.63;4967146;28;20070;-56
2022/08/13 10:51:21;;;;;;;4.15;1.25;;;;;;;29.15;32.83;101600.81;4974692;28;20178;-55
2022/08/13 10:53:55;;;;;;;4.45;1.40;;;;;;;29.22;30.71;101607.59;4982257;28;20521;-56
2022/08/13 10:56:22;;;;;;;3.65;1.30;;;;;;;29.28;31.65;101609.16;4972293;28;20035;-52
2022/08/13 10:58:48;;;;;;;2.78;1.38;;;;;;;29.27;31.90;101616.22;4996206;28;20061;-55
2022/08/13 11:01:15;;;;;;;2.53;1.10;;;;;;;29.32;30.75;101605.47;5003444;28;20034;-56
2022/08/13 11:03:44;;;;;;;4.88;1.10;;;;;;;29.39;31.02;101599.88;4976931;28;20038;-55
2022/08/13 11:06:09;;;;;;;2.92;1.13;;;;;;;29.41;31.40;101598.94;4996958;28;20055;-56
2022/08/13 11:08:38;;;;;;;2.22;1.30;;;;;;;29.41;31.63;101602.44;4979487;28;20070;-53
2022/08/13 11:11:09;;;;;;;3.30;1.10;;;;;;;29.51;29.38;101606.47;4986814;28;20033;-55
2022/08/13 11:13:36;;;;;;;2.15;0.80;;;;;;;29.50;27.42;101604.75;4980893;28;20047;-56
2022/08/13 11:16:06;;;;;;;2.08;1.20;;;;;;;29.52;28.66;101602.94;4965240;28;20494;-52
2022/08/13 11:18:32;;;;;;;2.15;0.90;;;;;;;29.65;29.00;101601.50;4969358;28;20470;-53
2022/08/13 11:21:07;;;;;;;2.97;0.90;;;;;;;29.65;29.47;101598.00;4968162;28;20557;-55
2022/08/13 11:23:34;;;;;;;6.05;1.05;;;;;;;29.65;27.12;101595.34;4975475;28;20055;-55
2022/08/13 11:26:00;;;;;;;3.08;1.20;;;;;;;29.65;27.83;101595.34;4970411;28;20045;-55
2022/08/13 11:28:26;;;;;;;3.08;1.20;;;;;;;29.62;27.13;101584.88;4974540;28;20113;-53
2022/08/13 11:30:53;;;;;;;2.17;1.00;;;;;;;29.72;28.49;101580.06;4971560;28;20035;-56
2022/08/13 11:33:21;;;;;;;5.20;1.10;;;;;;;29.77;27.29;101580.75;4973577;28;20054;-55
2022/08/13 11:35:46;;;;;;;3.78;1.30;;;;;;;29.83;28.08;101577.84;4966738;28;20057;-55
2022/08/13 11:38:13;;;;;;;3.00;1.27;;;;;;;29.83;28.09;101578.69;4966315;28;20065;-53
2022/08/13 11:40:44;;;;;;;3.22;1.15;;;;;;;29.94;28.12;101578.25;4965543;28;20122;-55
2022/08/13 11:43:09;;;;;;;1.00;0.85;;;;;;;30.02;27.81;101572.63;4967968;28;20054;-55